sensor_id;sensor_type;location;lat;lon;timestamp;temperature;humidity
20231;DHT22;10274;49.022;9.338;2022-09-27T00:00:31;10.40;99.90
20231;DHT22;10274;49.022;9.338;2022-09-27T00:02:58;10.40;99.90
20231;DHT22;10274;49.022;9.338;2022-09-27T00:05:25;10.40;99.90
20231;DHT22;10274;49.022;9.338;2022-09-27T00:07:52;10.40;99.90
20231;DHT22;10274;49.022;9.338;2022-09-27T00:10:18;10.40;99.90
20231;DHT22;10274;49.022;9.338;2022-09-27T00:12:45;10.40;99.90
20231;DHT22;10274;49.022;9.338;2022-09-27T00:15:13;10.40;99.90
20231;DHT22;10274;49.022;9.338;2022-09-27T00:17:41;10.30;99.90
20231;DHT22;10274;49.022;9.338;2022-09-27T00:20:08;10.40;99.90
20231;DHT22;10274;49.022;9.338;2022-09-27T00:22:35;10.40;99.90
20231;DHT22;10274;49.022;9.338;2022-09-27T00:25:03;10.40;99.90
20231;DHT22;10274;49.022;9.338;2022-09-27T00:27:31;10.40;99.90
20231;DHT22;10274;49.022;9.338;2022-09-27T00:29:58;10.30;99.90
20231;DHT22;10274;49.022;9.338;2022-09-27T00:32:25;10.40;99.90
20231;DHT22;10274;49.022;9.338;2022-09-27T00:34:53;10.30;99.90
20231;DHT22;10274;49.022;9.338;2022-09-27T00:37:20;10.30;99.90
20231;DHT22;10274;49.022;9.338;2022-09-27T00:39:47;10.30;99.90
20231;DHT22;10274;49.022;9.338;2022-09-27T00:42:14;10.30;99.90
20231;DHT22;10274;49.022;9.338;2022-09-27T00:45:00;10.30;99.90
20231;DHT22;10274;49.022;9.338;2022-09-27T00:47:32;10.30;99.90
20231;DHT22;10274;49.022;9.338;2022-09-27T00:50:04;10.30;99.90
20231;DHT22;10274;49.022;9.338;2022-09-27T00:52:40;10.30;99.90
20231;DHT22;10274;49.022;9.338;2022-09-27T00:55:11;10.40;99.90
20231;DHT22;10274;49.022;9.338;2022-09-27T00:57:39;10.40;99.90
20231;DHT22;10274;49.022;9.338;2022-09-27T01:00:09;10.40;99.90
20231;DHT22;10274;49.022;9.338;2022-09-27T01:02:40;10.30;99.90
20231;DHT22;10274;49.022;9.338;2022-09-27T01:05:11;10.40;99.90
20231;DHT22;10274;49.022;9.338;2022-09-27T01:07:39;10.40;99.90
20231;DHT22;10274;49.022;9.338;2022-09-27T01:10:06;10.40;99.90
20231;DHT22;10274;49.022;9.338;2022-09-27T01:12:41;10.30;99.90
20231;DHT22;10274;49.022;9.338;2022-09-27T01:15:16;10.40;99.90
20231;DHT22;10274;49.022;9.338;2022-09-27T01:17:52;10.40;99.90
20231;DHT22;10274;49.022;9.338;2022-09-27T01:23:45;10.30;99.90
20231;DHT22;10274;49.022;9.338;2022-09-27T01:26:24;10.30;99.90
20231;DHT22;10274;49.022;9.338;2022-09-27T01:29:01;10.30;99.90
20231;DHT22;10274;49.022;9.338;2022-09-27T01:31:36;10.30;99.90
20231;DHT22;10274;49.022;9.338;2022-09-27T01:34:10;10.30;99.90
20231;DHT22;10274;49.022;9.338;2022-09-27T01:36:48;10.40;99.90
20231;DHT22;10274;49.022;9.338;2022-09-27T01:39:29;10.30;99.90
20231;DHT22;10274;49.022;9.338;2022-09-27T01:42:03;10.40;99.90
20231;DHT22;10274;49.022;9.338;2022-09-27T01:44:38;10.40;99.90
20231;DHT22;10274;49.022;9.338;2022-09-27T01:47:11;10.40;99.90
20231;DHT22;10274;49.022;9.338;2022-09-27T01:49:44;10.30;99.90
20231;DHT22;10274;49.022;9.338;2022-09-27T01:52:17;10.30;99.90
20231;DHT22;10274;49.022;9.338;2022-09-27T01:54:47;10.30;99.90
20231;DHT22;10274;49.022;9.338;2022-09-27T01:57:20;10.40;99.90
20231;DHT22;10274;49.022;9.338;2022-09-27T01:59:51;10.30;99.90
20231;DHT22;10274;49.022;9.338;2022-09-27T02:02:23;10.30;99.90
20231;DHT22;10274;49.022;9.338;2022-09-27T02:04:52;10.40;99.90
20231;DHT22;10274;49.022;9.338;2022-09-27T02:07:26;10.40;99.90
20231;DHT22;10274;49.022;9.338;2022-09-27T02:09:58;10.40;99.90
20231;DHT22;10274;49.022;9.338;2022-09-27T02:12:29;10.40;99.90
20231;DHT22;10274;49.022;9.338;2022-09-27T02:14:58;10.30;99.90
20231;DHT22;10274;49.022;9.338;2022-09-27T02:17:32;10.40;99.90
20231;DHT22;10274;49.022;9.338;2022-09-27T02:20:06;10.40;99.90
20231;DHT22;10274;49.022;9.338;2022-09-27T02:22:37;10.40;99.90
20231;DHT22;10274;49.022;9.338;2022-09-27T02:25:12;10.50;99.90
20231;DHT22;10274;49.022;9.338;2022-09-27T02:27:45;10.40;99.90
20231;DHT22;10274;49.022;9.338;2022-09-27T02:30:16;10.40;99.90
20231;DHT22;10274;49.022;9.338;2022-09-27T02:32:45;10.30;99.90
20231;DHT22;10274;49.022;9.338;2022-09-27T02:35:16;10.30;99.90
20231;DHT22;10274;49.022;9.338;2022-09-27T02:37:44;10.30;99.90
20231;DHT22;10274;49.022;9.338;2022-09-27T02:40:11;10.30;99.90
20231;DHT22;10274;49.022;9.338;2022-09-27T02:42:40;10.30;99.90
20231;DHT22;10274;49.022;9.338;2022-09-27T02:45:08;10.30;99.90
20231;DHT22;10274;49.022;9.338;2022-09-27T02:47:50;10.30;99.90
20231;DHT22;10274;49.022;9.338;2022-09-27T02:50:45;10.20;99.90
20231;DHT22;10274;49.022;9.338;2022-09-27T02:53:28;10.20;99.90
20231;DHT22;10274;49.022;9.338;2022-09-27T02:56:02;10.20;99.90
20231;DHT22;10274;49.022;9.338;2022-09-27T02:58:40;10.20;99.90
20231;DHT22;10274;49.022;9.338;2022-09-27T03:01:16;10.20;99.90
20231;DHT22;10274;49.022;9.338;2022-09-27T03:03:52;10.10;99.90
20231;DHT22;10274;49.022;9.338;2022-09-27T03:06:22;10.20;99.90
20231;DHT22;10274;49.022;9.338;2022-09-27T03:08:49;10.20;99.90
20231;DHT22;10274;49.022;9.338;2022-09-27T03:11:16;10.10;99.90
20231;DHT22;10274;49.022;9.338;2022-09-27T03:13:43;10.10;99.90
20231;DHT22;10274;49.022;9.338;2022-09-27T03:16:10;10.10;99.90
20231;DHT22;10274;49.022;9.338;2022-09-27T03:18:37;10.10;99.90
20231;DHT22;10274;49.022;9.338;2022-09-27T03:21:05;10.10;99.90
20231;DHT22;10274;49.022;9.338;2022-09-27T03:23:32;10.00;99.90
20231;DHT22;10274;49.022;9.338;2022-09-27T03:25:59;10.00;99.90
20231;DHT22;10274;49.022;9.338;2022-09-27T03:28:25;10.00;99.90
20231;DHT22;10274;49.022;9.338;2022-09-27T03:30:54;10.00;99.90
20231;DHT22;10274;49.022;9.338;2022-09-27T03:33:21;10.00;99.90
20231;DHT22;10274;49.022;9.338;2022-09-27T03:35:48;10.00;99.90
20231;DHT22;10274;49.022;9.338;2022-09-27T03:38:16;9.90;99.90
20231;DHT22;10274;49.022;9.338;2022-09-27T03:40:43;10.00;99.90
20231;DHT22;10274;49.022;9.338;2022-09-27T03:43:09;9.90;99.90
20231;DHT22;10274;49.022;9.338;2022-09-27T03:45:36;9.90;99.90
20231;DHT22;10274;49.022;9.338;2022-09-27T03:48:03;9.90;99.90
20231;DHT22;10274;49.022;9.338;2022-09-27T03:50:29;9.90;99.90
20231;DHT22;10274;49.022;9.338;2022-09-27T03:52:56;10.00;99.90
20231;DHT22;10274;49.022;9.338;2022-09-27T03:55:24;10.00;99.90
20231;DHT22;10274;49.022;9.338;2022-09-27T03:57:51;10.00;99.90
20231;DHT22;10274;49.022;9.338;2022-09-27T04:00:18;10.00;99.90
20231;DHT22;10274;49.022;9.338;2022-09-27T04:02:45;9.90;99.90
20231;DHT22;10274;49.022;9.338;2022-09-27T04:05:12;10.00;99.90
20231;DHT22;10274;49.022;9.338;2022-09-27T04:07:38;10.00;99.90
20231;DHT22;10274;49.022;9.338;2022-09-27T04:10:06;10.00;99.90
20231;DHT22;10274;49.022;9.338;2022-09-27T04:12:34;9.90;99.90
20231;DHT22;10274;49.022;9.338;2022-09-27T04:15:01;10.00;99.90
20231;DHT22;10274;49.022;9.338;2022-09-27T04:17:27;9.90;99.90
20231;DHT22;10274;49.022;9.338;2022-09-27T04:19:54;9.90;99.90
20231;DHT22;10274;49.022;9.338;2022-09-27T04:22:21;9.90;99.90
20231;DHT22;10274;49.022;9.338;2022-09-27T04:24:48;9.90;99.90
20231;DHT22;10274;49.022;9.338;2022-09-27T04:27:14;9.90;99.90
20231;DHT22;10274;49.022;9.338;2022-09-27T04:29:42;9.90;99.90
20231;DHT22;10274;49.022;9.338;2022-09-27T04:32:10;9.90;99.90
20231;DHT22;10274;49.022;9.338;2022-09-27T04:34:37;9.90;99.90
20231;DHT22;10274;49.022;9.338;2022-09-27T04:37:22;9.90;99.90
20231;DHT22;10274;49.022;9.338;2022-09-27T04:39:48;9.90;99.90
20231;DHT22;10274;49.022;9.338;2022-09-27T04:42:15;9.80;99.90
20231;DHT22;10274;49.022;9.338;2022-09-27T04:44:44;9.90;99.90
20231;DHT22;10274;49.022;9.338;2022-09-27T04:47:12;9.90;99.90
20231;DHT22;10274;49.022;9.338;2022-09-27T04:49:39;9.90;99.90
20231;DHT22;10274;49.022;9.338;2022-09-27T04:52:05;9.90;99.90
20231;DHT22;10274;49.022;9.338;2022-09-27T04:54:32;9.90;99.90
20231;DHT22;10274;49.022;9.338;2022-09-27T04:56:59;9.90;99.90
20231;DHT22;10274;49.022;9.338;2022-09-27T04:59:25;9.90;99.90
20231;DHT22;10274;49.022;9.338;2022-09-27T05:01:53;9.90;99.90
20231;DHT22;10274;49.022;9.338;2022-09-27T05:04:24;9.90;99.90
20231;DHT22;10274;49.022;9.338;2022-09-27T05:06:50;9.90;99.90
20231;DHT22;10274;49.022;9.338;2022-09-27T05:09:17;9.90;99.90
20231;DHT22;10274;49.022;9.338;2022-09-27T05:11:44;9.90;99.90
20231;DHT22;10274;49.022;9.338;2022-09-27T05:14:10;9.90;99.90
20231;DHT22;10274;49.022;9.338;2022-09-27T05:16:38;9.90;99.90
20231;DHT22;10274;49.022;9.338;2022-09-27T05:19:06;9.90;99.90
20231;DHT22;10274;49.022;9.338;2022-09-27T05:21:33;9.90;99.90
20231;DHT22;10274;49.022;9.338;2022-09-27T05:24:00;9.90;99.90
20231;DHT22;10274;49.022;9.338;2022-09-27T05:26:26;9.90;99.90
20231;DHT22;10274;49.022;9.338;2022-09-27T05:28:53;9.90;99.90
20231;DHT22;10274;49.022;9.338;2022-09-27T05:31:20;9.90;99.90
20231;DHT22;10274;49.022;9.338;2022-09-27T05:33:46;9.90;99.90
20231;DHT22;10274;49.022;9.338;2022-09-27T05:36:14;9.90;99.90
20231;DHT22;10274;49.022;9.338;2022-09-27T05:38:41;9.90;99.90
20231;DHT22;10274;49.022;9.338;2022-09-27T05:41:08;9.90;99.90
20231;DHT22;10274;49.022;9.338;2022-09-27T05:43:35;9.90;99.90
20231;DHT22;10274;49.022;9.338;2022-09-27T05:46:02;9.90;99.90
20231;DHT22;10274;49.022;9.338;2022-09-27T05:48:30;9.90;99.90
20231;DHT22;10274;49.022;9.338;2022-09-27T05:50:57;9.90;99.90
20231;DHT22;10274;49.022;9.338;2022-09-27T05:53:25;9.80;99.90
20231;DHT22;10274;49.022;9.338;2022-09-27T05:55:51;9.80;99.90
20231;DHT22;10274;49.022;9.338;2022-09-27T05:58:18;9.80;99.90
20231;DHT22;10274;49.022;9.338;2022-09-27T06:00:45;9.80;99.90
20231;DHT22;10274;49.022;9.338;2022-09-27T06:03:12;9.80;99.90
20231;DHT22;10274;49.022;9.338;2022-09-27T06:05:40;9.80;99.90
20231;DHT22;10274;49.022;9.338;2022-09-27T06:08:08;9.80;99.90
20231;DHT22;10274;49.022;9.338;2022-09-27T06:10:38;9.70;99.90
20231;DHT22;10274;49.022;9.338;2022-09-27T06:13:06;9.80;99.90
20231;DHT22;10274;49.022;9.338;2022-09-27T06:15:34;9.80;99.90
20231;DHT22;10274;49.022;9.338;2022-09-27T06:18:03;9.80;99.90
20231;DHT22;10274;49.022;9.338;2022-09-27T06:20:30;9.80;99.90
20231;DHT22;10274;49.022;9.338;2022-09-27T06:23:03;9.90;99.90
20231;DHT22;10274;49.022;9.338;2022-09-27T06:25:30;9.80;99.90
20231;DHT22;10274;49.022;9.338;2022-09-27T06:27:58;9.80;99.90
20231;DHT22;10274;49.022;9.338;2022-09-27T06:30:25;9.90;99.90
20231;DHT22;10274;49.022;9.338;2022-09-27T06:32:55;9.90;99.90
20231;DHT22;10274;49.022;9.338;2022-09-27T06:35:22;9.80;99.90
20231;DHT22;10274;49.022;9.338;2022-09-27T06:37:50;9.80;99.90
20231;DHT22;10274;49.022;9.338;2022-09-27T06:40:16;9.80;99.90
20231;DHT22;10274;49.022;9.338;2022-09-27T06:42:43;9.80;99.90
20231;DHT22;10274;49.022;9.338;2022-09-27T06:45:12;9.80;99.90
20231;DHT22;10274;49.022;9.338;2022-09-27T06:47:38;9.80;99.90
20231;DHT22;10274;49.022;9.338;2022-09-27T06:50:06;9.80;99.90
20231;DHT22;10274;49.022;9.338;2022-09-27T06:52:33;9.80;99.90
20231;DHT22;10274;49.022;9.338;2022-09-27T06:55:00;9.80;99.90
20231;DHT22;10274;49.022;9.338;2022-09-27T06:57:26;9.90;99.90
20231;DHT22;10274;49.022;9.338;2022-09-27T07:00:09;10.00;99.90
20231;DHT22;10274;49.022;9.338;2022-09-27T07:02:55;9.90;99.90
20231;DHT22;10274;49.022;9.338;2022-09-27T07:05:26;9.90;99.90
20231;DHT22;10274;49.022;9.338;2022-09-27T07:07:53;10.00;99.90
20231;DHT22;10274;49.022;9.338;2022-09-27T07:10:22;10.00;99.90
20231;DHT22;10274;49.022;9.338;2022-09-27T07:12:49;9.90;99.90
20231;DHT22;10274;49.022;9.338;2022-09-27T07:15:17;9.90;99.90
20231;DHT22;10274;49.022;9.338;2022-09-27T07:17:44;9.90;99.90
20231;DHT22;10274;49.022;9.338;2022-09-27T07:20:12;9.90;99.90
20231;DHT22;10274;49.022;9.338;2022-09-27T07:22:40;9.90;99.90
20231;DHT22;10274;49.022;9.338;2022-09-27T07:25:08;9.80;99.90
20231;DHT22;10274;49.022;9.338;2022-09-27T07:27:34;9.90;99.90
20231;DHT22;10274;49.022;9.338;2022-09-27T07:30:01;9.80;99.90
20231;DHT22;10274;49.022;9.338;2022-09-27T07:32:28;9.90;98.60
20231;DHT22;10274;49.022;9.338;2022-09-27T07:34:55;9.90;99.90
20231;DHT22;10274;49.022;9.338;2022-09-27T07:37:23;9.90;99.90
20231;DHT22;10274;49.022;9.338;2022-09-27T07:39:49;9.80;95.40
20231;DHT22;10274;49.022;9.338;2022-09-27T07:42:16;9.50;99.90
20231;DHT22;10274;49.022;9.338;2022-09-27T07:44:43;9.90;99.40
20231;DHT22;10274;49.022;9.338;2022-09-27T07:47:09;10.00;99.90
20231;DHT22;10274;49.022;9.338;2022-09-27T07:49:36;10.00;99.90
20231;DHT22;10274;49.022;9.338;2022-09-27T07:52:03;10.10;94.40
20231;DHT22;10274;49.022;9.338;2022-09-27T07:54:31;10.10;91.70
20231;DHT22;10274;49.022;9.338;2022-09-27T07:56:58;10.00;86.00
20231;DHT22;10274;49.022;9.338;2022-09-27T07:59:24;10.00;89.80
20231;DHT22;10274;49.022;9.338;2022-09-27T08:01:52;10.00;99.90
20231;DHT22;10274;49.022;9.338;2022-09-27T08:04:20;10.00;93.30
20231;DHT22;10274;49.022;9.338;2022-09-27T08:06:46;10.00;83.80
20231;DHT22;10274;49.022;9.338;2022-09-27T08:09:13;10.10;99.90
20231;DHT22;10274;49.022;9.338;2022-09-27T08:11:41;10.20;79.60
20231;DHT22;10274;49.022;9.338;2022-09-27T08:14:10;10.20;71.70
20231;DHT22;10274;49.022;9.338;2022-09-27T08:16:37;10.20;75.20
20231;DHT22;10274;49.022;9.338;2022-09-27T08:19:04;10.30;45.20
20231;DHT22;10274;49.022;9.338;2022-09-27T08:21:30;10.40;67.30
20231;DHT22;10274;49.022;9.338;2022-09-27T08:23:58;10.50;50.20
20231;DHT22;10274;49.022;9.338;2022-09-27T08:26:26;10.60;34.70
20231;DHT22;10274;49.022;9.338;2022-09-27T08:28:54;10.60;44.50
20231;DHT22;10274;49.022;9.338;2022-09-27T08:31:21;10.60;58.80
20231;DHT22;10274;49.022;9.338;2022-09-27T08:33:50;10.70;65.10
20231;DHT22;10274;49.022;9.338;2022-09-27T08:36:17;10.70;21.80
20231;DHT22;10274;49.022;9.338;2022-09-27T08:38:47;11.00;38.70
20231;DHT22;10274;49.022;9.338;2022-09-27T08:41:20;11.20;1.00
20231;DHT22;10274;49.022;9.338;2022-09-27T08:44:00;11.40;11.50
20231;DHT22;10274;49.022;9.338;2022-09-27T08:46:37;11.50;1.00
20231;DHT22;10274;49.022;9.338;2022-09-27T08:49:11;11.50;1.00
20231;DHT22;10274;49.022;9.338;2022-09-27T08:51:40;11.30;1.50
20231;DHT22;10274;49.022;9.338;2022-09-27T08:54:13;11.20;1.00
20231;DHT22;10274;49.022;9.338;2022-09-27T08:56:43;11.10;1.00
20231;DHT22;10274;49.022;9.338;2022-09-27T08:59:14;10.90;1.00
20231;DHT22;10274;49.022;9.338;2022-09-27T09:01:45;10.90;1.00
20231;DHT22;10274;49.022;9.338;2022-09-27T09:04:14;10.90;1.00
20231;DHT22;10274;49.022;9.338;2022-09-27T09:06:51;10.90;1.00
20231;DHT22;10274;49.022;9.338;2022-09-27T09:09:28;11.00;1.00
20231;DHT22;10274;49.022;9.338;2022-09-27T09:12:05;11.00;1.00
20231;DHT22;10274;49.022;9.338;2022-09-27T09:15:07;11.00;1.00
20231;DHT22;10274;49.022;9.338;2022-09-27T09:17:51;11.00;1.00
20231;DHT22;10274;49.022;9.338;2022-09-27T09:20:29;11.00;1.00
20231;DHT22;10274;49.022;9.338;2022-09-27T09:23:10;11.00;1.00
20231;DHT22;10274;49.022;9.338;2022-09-27T09:25:49;11.00;1.00
20231;DHT22;10274;49.022;9.338;2022-09-27T09:28:28;10.90;1.00
20231;DHT22;10274;49.022;9.338;2022-09-27T09:31:07;10.90;1.00
20231;DHT22;10274;49.022;9.338;2022-09-27T09:33:40;10.90;1.00
20231;DHT22;10274;49.022;9.338;2022-09-27T09:36:14;11.00;1.00
20231;DHT22;10274;49.022;9.338;2022-09-27T09:38:48;10.90;1.00
20231;DHT22;10274;49.022;9.338;2022-09-27T09:41:19;11.00;1.00
20231;DHT22;10274;49.022;9.338;2022-09-27T09:43:50;11.10;1.00
20231;DHT22;10274;49.022;9.338;2022-09-27T09:46:21;11.30;1.00
20231;DHT22;10274;49.022;9.338;2022-09-27T09:48:52;11.50;1.00
20231;DHT22;10274;49.022;9.338;2022-09-27T09:51:25;11.60;1.00
20231;DHT22;10274;49.022;9.338;2022-09-27T09:53:56;12.00;1.00
20231;DHT22;10274;49.022;9.338;2022-09-27T09:56:27;12.00;1.00
20231;DHT22;10274;49.022;9.338;2022-09-27T09:58:57;11.90;99.90
20231;DHT22;10274;49.022;9.338;2022-09-27T10:01:28;11.60;99.90
20231;DHT22;10274;49.022;9.338;2022-09-27T10:03:58;11.40;99.90
20231;DHT22;10274;49.022;9.338;2022-09-27T10:06:25;11.40;1.00
20231;DHT22;10274;49.022;9.338;2022-09-27T10:08:53;11.30;1.00
20231;DHT22;10274;49.022;9.338;2022-09-27T10:11:23;11.20;99.90
20231;DHT22;10274;49.022;9.338;2022-09-27T10:13:50;11.40;1.00
20231;DHT22;10274;49.022;9.338;2022-09-27T10:16:19;11.60;99.90
20231;DHT22;10274;49.022;9.338;2022-09-27T10:18:48;11.70;1.00
20231;DHT22;10274;49.022;9.338;2022-09-27T10:21:19;11.80;1.00
20231;DHT22;10274;49.022;9.338;2022-09-27T10:24:02;12.00;5.20
20231;DHT22;10274;49.022;9.338;2022-09-27T10:26:29;12.40;99.90
20231;DHT22;10274;49.022;9.338;2022-09-27T10:28:56;12.70;1.00
20231;DHT22;10274;49.022;9.338;2022-09-27T10:31:23;12.60;1.00
20231;DHT22;10274;49.022;9.338;2022-09-27T10:34:03;12.50;99.90
20231;DHT22;10274;49.022;9.338;2022-09-27T10:36:31;12.30;99.90
20231;DHT22;10274;49.022;9.338;2022-09-27T10:39:00;12.00;1.00
20231;DHT22;10274;49.022;9.338;2022-09-27T10:41:32;11.90;1.00
20231;DHT22;10274;49.022;9.338;2022-09-27T10:44:19;11.90;1.00
20231;DHT22;10274;49.022;9.338;2022-09-27T10:46:47;12.00;1.00
20231;DHT22;10274;49.022;9.338;2022-09-27T10:49:18;12.10;99.90
20231;DHT22;10274;49.022;9.338;2022-09-27T10:51:50;12.30;1.00
20231;DHT22;10274;49.022;9.338;2022-09-27T10:54:19;12.30;1.00
20231;DHT22;10274;49.022;9.338;2022-09-27T10:56:54;12.10;99.90
20231;DHT22;10274;49.022;9.338;2022-09-27T10:59:21;12.00;99.90
20231;DHT22;10274;49.022;9.338;2022-09-27T11:01:48;11.90;1.00
20231;DHT22;10274;49.022;9.338;2022-09-27T11:04:22;11.70;99.90
20231;DHT22;10274;49.022;9.338;2022-09-27T11:06:49;11.50;1.00
20231;DHT22;10274;49.022;9.338;2022-09-27T11:09:19;11.30;1.00
20231;DHT22;10274;49.022;9.338;2022-09-27T11:11:48;11.00;99.90
20231;DHT22;10274;49.022;9.338;2022-09-27T11:14:20;11.00;1.00
20231;DHT22;10274;49.022;9.338;2022-09-27T11:17:00;10.80;1.00
20231;DHT22;10274;49.022;9.338;2022-09-27T11:19:48;10.80;1.00
20231;DHT22;10274;49.022;9.338;2022-09-27T11:22:29;10.70;1.00
20231;DHT22;10274;49.022;9.338;2022-09-27T11:25:09;10.70;1.00
20231;DHT22;10274;49.022;9.338;2022-09-27T11:27:49;10.60;1.00
20231;DHT22;10274;49.022;9.338;2022-09-27T11:30:20;10.80;14.10
20231;DHT22;10274;49.022;9.338;2022-09-27T11:33:08;10.80;1.00
20231;DHT22;10274;49.022;9.338;2022-09-27T11:35:44;10.80;1.00
20231;DHT22;10274;49.022;9.338;2022-09-27T11:38:18;10.80;1.00
20231;DHT22;10274;49.022;9.338;2022-09-27T11:41:10;10.70;1.00
20231;DHT22;10274;49.022;9.338;2022-09-27T11:44:04;10.70;15.90
20231;DHT22;10274;49.022;9.338;2022-09-27T11:46:35;10.60;6.30
20231;DHT22;10274;49.022;9.338;2022-09-27T11:49:24;10.60;44.00
20231;DHT22;10274;49.022;9.338;2022-09-27T11:52:07;10.50;60.60
20231;DHT22;10274;49.022;9.338;2022-09-27T11:54:48;10.30;75.00
20231;DHT22;10274;49.022;9.338;2022-09-27T11:57:23;10.20;68.10
20231;DHT22;10274;49.022;9.338;2022-09-27T12:00:13;10.00;94.00
20231;DHT22;10274;49.022;9.338;2022-09-27T12:03:19;9.90;70.80
20231;DHT22;10274;49.022;9.338;2022-09-27T12:06:00;9.70;82.60
20231;DHT22;10274;49.022;9.338;2022-09-27T12:11:25;9.50;99.90
20231;DHT22;10274;49.022;9.338;2022-09-27T12:13:57;9.40;99.90
20231;DHT22;10274;49.022;9.338;2022-09-27T12:16:26;9.40;99.90
20231;DHT22;10274;49.022;9.338;2022-09-27T12:18:53;9.30;50.50
20231;DHT22;10274;49.022;9.338;2022-09-27T12:21:20;9.20;25.80
20231;DHT22;10274;49.022;9.338;2022-09-27T12:23:53;9.10;77.90
20231;DHT22;10274;49.022;9.338;2022-09-27T12:26:25;9.00;99.90
20231;DHT22;10274;49.022;9.338;2022-09-27T12:28:55;8.90;83.00
20231;DHT22;10274;49.022;9.338;2022-09-27T12:31:25;9.00;99.90
20231;DHT22;10274;49.022;9.338;2022-09-27T12:34:01;9.00;99.90
20231;DHT22;10274;49.022;9.338;2022-09-27T12:36:32;9.10;99.90
20231;DHT22;10274;49.022;9.338;2022-09-27T12:39:05;9.10;93.70
20231;DHT22;10274;49.022;9.338;2022-09-27T12:41:39;9.20;67.80
20231;DHT22;10274;49.022;9.338;2022-09-27T12:44:08;9.40;77.80
20231;DHT22;10274;49.022;9.338;2022-09-27T12:46:43;9.40;66.40
20231;DHT22;10274;49.022;9.338;2022-09-27T12:49:22;9.30;64.10
20231;DHT22;10274;49.022;9.338;2022-09-27T12:51:54;9.30;96.80
20231;DHT22;10274;49.022;9.338;2022-09-27T12:54:31;9.20;94.00
20231;DHT22;10274;49.022;9.338;2022-09-27T12:57:15;9.20;83.90
20231;DHT22;10274;49.022;9.338;2022-09-27T12:59:58;9.30;99.80
20231;DHT22;10274;49.022;9.338;2022-09-27T13:06:06;9.30;99.90
20231;DHT22;10274;49.022;9.338;2022-09-27T13:09:00;9.30;85.40
20231;DHT22;10274;49.022;9.338;2022-09-27T13:11:44;9.30;49.40
20231;DHT22;10274;49.022;9.338;2022-09-27T13:14:17;9.20;59.80
20231;DHT22;10274;49.022;9.338;2022-09-27T13:16:46;9.20;90.30
20231;DHT22;10274;49.022;9.338;2022-09-27T13:19:39;9.10;90.40
20231;DHT22;10274;49.022;9.338;2022-09-27T13:22:08;9.10;99.90
20231;DHT22;10274;49.022;9.338;2022-09-27T13:24:48;9.10;71.90
20231;DHT22;10274;49.022;9.338;2022-09-27T13:27:36;9.10;71.00
20231;DHT22;10274;49.022;9.338;2022-09-27T13:33:30;9.20;99.90
20231;DHT22;10274;49.022;9.338;2022-09-27T13:36:20;9.30;99.90
20231;DHT22;10274;49.022;9.338;2022-09-27T13:39:04;9.30;99.90
20231;DHT22;10274;49.022;9.338;2022-09-27T13:41:56;9.30;95.60
20231;DHT22;10274;49.022;9.338;2022-09-27T13:44:32;9.20;92.60
20231;DHT22;10274;49.022;9.338;2022-09-27T13:47:03;9.30;99.90
20231;DHT22;10274;49.022;9.338;2022-09-27T13:49:40;9.40;99.90
20231;DHT22;10274;49.022;9.338;2022-09-27T13:52:17;9.30;81.30
20231;DHT22;10274;49.022;9.338;2022-09-27T13:54:50;9.40;99.90
20231;DHT22;10274;49.022;9.338;2022-09-27T13:57:40;9.60;92.30
20231;DHT22;10274;49.022;9.338;2022-09-27T14:00:12;9.80;84.70
20231;DHT22;10274;49.022;9.338;2022-09-27T14:02:48;9.80;66.80
20231;DHT22;10274;49.022;9.338;2022-09-27T14:05:20;9.60;71.90
20231;DHT22;10274;49.022;9.338;2022-09-27T14:07:49;9.60;99.90
20231;DHT22;10274;49.022;9.338;2022-09-27T14:10:19;9.60;99.90
20231;DHT22;10274;49.022;9.338;2022-09-27T14:12:48;9.50;99.90
20231;DHT22;10274;49.022;9.338;2022-09-27T14:15:21;9.60;99.90
20231;DHT22;10274;49.022;9.338;2022-09-27T14:17:49;9.60;99.90
20231;DHT22;10274;49.022;9.338;2022-09-27T14:20:30;9.60;99.20
20231;DHT22;10274;49.022;9.338;2022-09-27T14:22:57;9.60;74.50
20231;DHT22;10274;49.022;9.338;2022-09-27T14:25:24;9.60;95.20
20231;DHT22;10274;49.022;9.338;2022-09-27T14:27:51;9.60;99.90
20231;DHT22;10274;49.022;9.338;2022-09-27T14:30:21;9.60;76.40
20231;DHT22;10274;49.022;9.338;2022-09-27T14:32:50;9.70;60.50
20231;DHT22;10274;49.022;9.338;2022-09-27T14:35:19;9.70;91.70
20231;DHT22;10274;49.022;9.338;2022-09-27T14:38:05;9.80;79.20
20231;DHT22;10274;49.022;9.338;2022-09-27T14:40:36;9.80;65.60
20231;DHT22;10274;49.022;9.338;2022-09-27T14:43:05;9.80;67.80
20231;DHT22;10274;49.022;9.338;2022-09-27T14:45:35;9.70;99.90
20231;DHT22;10274;49.022;9.338;2022-09-27T14:48:18;9.70;49.90
20231;DHT22;10274;49.022;9.338;2022-09-27T14:50:53;9.70;39.00
20231;DHT22;10274;49.022;9.338;2022-09-27T14:53:22;9.60;84.30
20231;DHT22;10274;49.022;9.338;2022-09-27T14:55:50;9.60;78.10
20231;DHT22;10274;49.022;9.338;2022-09-27T14:58:20;9.60;90.70
20231;DHT22;10274;49.022;9.338;2022-09-27T15:00:49;9.60;99.90
20231;DHT22;10274;49.022;9.338;2022-09-27T15:03:20;9.60;99.90
20231;DHT22;10274;49.022;9.338;2022-09-27T15:05:50;9.50;95.70
20231;DHT22;10274;49.022;9.338;2022-09-27T15:08:26;9.60;99.90
20231;DHT22;10274;49.022;9.338;2022-09-27T15:10:54;9.60;99.90
20231;DHT22;10274;49.022;9.338;2022-09-27T15:13:21;9.70;99.90
20231;DHT22;10274;49.022;9.338;2022-09-27T15:15:51;9.80;99.90
20231;DHT22;10274;49.022;9.338;2022-09-27T15:18:38;10.40;99.90
20231;DHT22;10274;49.022;9.338;2022-09-27T15:21:09;11.00;99.90
20231;DHT22;10274;49.022;9.338;2022-09-27T15:23:37;10.70;35.20
20231;DHT22;10274;49.022;9.338;2022-09-27T15:26:09;10.70;66.50
20231;DHT22;10274;49.022;9.338;2022-09-27T15:28:41;10.50;38.20
20231;DHT22;10274;49.022;9.338;2022-09-27T15:31:10;10.30;59.90
20231;DHT22;10274;49.022;9.338;2022-09-27T15:33:38;10.30;71.30
20231;DHT22;10274;49.022;9.338;2022-09-27T15:36:06;10.30;85.10
20231;DHT22;10274;49.022;9.338;2022-09-27T15:38:34;11.10;36.10
20231;DHT22;10274;49.022;9.338;2022-09-27T15:41:10;11.10;1.00
20231;DHT22;10274;49.022;9.338;2022-09-27T15:43:40;10.80;1.00
20231;DHT22;10274;49.022;9.338;2022-09-27T15:46:33;10.60;29.30
20231;DHT22;10274;49.022;9.338;2022-09-27T15:49:30;10.50;39.10
20231;DHT22;10274;49.022;9.338;2022-09-27T15:52:00;10.30;66.50
20231;DHT22;10274;49.022;9.338;2022-09-27T15:54:28;10.10;60.00
20231;DHT22;10274;49.022;9.338;2022-09-27T15:56:59;10.00;82.10
20231;DHT22;10274;49.022;9.338;2022-09-27T15:59:30;10.00;93.90
20231;DHT22;10274;49.022;9.338;2022-09-27T16:02:01;10.00;93.00
20231;DHT22;10274;49.022;9.338;2022-09-27T16:04:30;10.10;79.60
20231;DHT22;10274;49.022;9.338;2022-09-27T16:06:59;10.10;98.30
20231;DHT22;10274;49.022;9.338;2022-09-27T16:09:26;10.20;97.50
20231;DHT22;10274;49.022;9.338;2022-09-27T16:11:53;10.20;92.80
20231;DHT22;10274;49.022;9.338;2022-09-27T16:14:20;10.30;91.20
20231;DHT22;10274;49.022;9.338;2022-09-27T16:16:48;10.20;99.90
20231;DHT22;10274;49.022;9.338;2022-09-27T16:19:17;10.20;86.90